createdAt,value
2022-08-08T00:00:59.983Z,8.73
2022-08-08T00:03:31.389Z,8.13
2022-08-08T00:06:28.264Z,8.93
2022-08-08T00:09:20.372Z,9.37
2022-08-08T00:12:07.708Z,10.70
2022-08-08T00:15:06.861Z,8.30
2022-08-08T00:18:02.438Z,8.63
2022-08-08T00:20:53.055Z,11.30
2022-08-08T00:23:42.773Z,12.37
2022-08-08T00:26:29.224Z,10.10
2022-08-08T00:29:08.117Z,9.00
2022-08-08T00:32:15.211Z,7.33
2022-08-08T00:35:20.138Z,10.07
2022-08-08T00:38:06.533Z,10.40
2022-08-08T00:41:10.276Z,12.33
2022-08-08T00:44:00.627Z,9.10
2022-08-08T00:47:19.370Z,11.17
2022-08-08T00:50:09.263Z,11.83
2022-08-08T00:53:06.892Z,11.97
2022-08-08T00:56:16.488Z,10.57
2022-08-08T00:58:58.469Z,10.33
2022-08-08T01:03:58.733Z,10.70
2022-08-08T01:05:42.375Z,10.73
2022-08-08T01:08:52.281Z,9.87
2022-08-08T01:11:37.770Z,11.70
2022-08-08T01:14:18.349Z,12.97
2022-08-08T01:17:20.097Z,14.97
2022-08-08T01:20:13.649Z,8.43
2022-08-08T01:23:03.493Z,11.13
2022-08-08T01:25:40.193Z,9.60
2022-08-08T01:28:18.036Z,16.33
2022-08-08T01:31:03.198Z,12.83
2022-08-08T01:34:04.961Z,12.37
2022-08-08T01:36:32.251Z,12.60
2022-08-08T01:39:23.294Z,11.67
2022-08-08T01:42:09.082Z,11.43
2022-08-08T01:45:02.899Z,12.70
2022-08-08T01:48:13.939Z,8.43
2022-08-08T01:51:30.330Z,9.13
2022-08-08T01:55:15.914Z,11.23
2022-08-08T01:57:10.693Z,13.50
2022-08-08T02:00:13.392Z,11.97
2022-08-08T02:02:56.996Z,13.67
2022-08-08T02:05:59.408Z,10.20
2022-08-08T02:08:49.197Z,11.77
2022-08-08T02:11:23.529Z,12.97
2022-08-08T02:14:25.264Z,9.77
2022-08-08T02:17:20.377Z,8.17
2022-08-08T02:20:14.761Z,11.57
2022-08-08T02:23:09.452Z,10.47
2022-08-08T02:26:16.436Z,9.93
2022-08-08T02:29:20.878Z,10.50
2022-08-08T02:32:00.684Z,10.03
2022-08-08T02:35:10.540Z,11.47
2022-08-08T02:37:56.742Z,14.07
2022-08-08T02:41:07.697Z,8.77
2022-08-08T02:44:38.863Z,7.33
2022-08-08T02:47:19.861Z,10.13
2022-08-08T02:50:07.881Z,10.27
2022-08-08T02:53:03.199Z,9.17
2022-08-08T02:55:37.131Z,10.73
2022-08-08T02:58:23.007Z,8.80
2022-08-08T03:01:14.566Z,8.73
2022-08-08T03:05:04.548Z,8.87
2022-08-08T03:07:57.768Z,8.70
2022-08-08T03:10:54.339Z,8.53
2022-08-08T03:16:01.432Z,8.23
2022-08-08T03:16:35.247Z,7.47
2022-08-08T03:19:33.551Z,7.37
2022-08-08T03:22:00.296Z,7.03
2022-08-08T03:24:28.712Z,7.23
2022-08-08T03:27:21.779Z,6.73
2022-08-08T03:30:01.878Z,8.63
2022-08-08T03:32:47.501Z,9.83
2022-08-08T03:35:30.135Z,9.43
2022-08-08T03:38:57.899Z,7.03
2022-08-08T03:40:53.987Z,8.57
2022-08-08T03:43:21.362Z,7.60
2022-08-08T03:46:06.325Z,9.17
2022-08-08T03:49:08.988Z,8.67
2022-08-08T03:51:40.670Z,8.43
2022-08-08T03:54:10.362Z,9.83
2022-08-08T03:56:43.485Z,10.00
2022-08-08T03:59:23.077Z,12.10
2022-08-08T04:02:12.826Z,11.27
2022-08-08T04:04:39.990Z,12.03
2022-08-08T04:07:08.566Z,14.60
2022-08-08T04:09:59.017Z,9.73
2022-08-08T04:12:23.942Z,11.80
2022-08-08T04:14:51.048Z,11.63
2022-08-08T04:17:46.661Z,6.07
2022-08-08T04:20:05.798Z,11.07
2022-08-08T04:22:35.707Z,12.60
2022-08-08T04:25:04.237Z,8.13
2022-08-08T04:28:02.723Z,8.00
2022-08-08T04:30:19.523Z,8.53
2022-08-08T04:32:49.814Z,10.23
2022-08-08T04:35:20.308Z,9.47
2022-08-08T04:37:50.443Z,11.33
2022-08-08T04:40:19.091Z,9.83
2022-08-08T04:42:56.837Z,9.70
2022-08-08T04:45:27.474Z,11.03
2022-08-08T04:47:58.633Z,9.93
2022-08-08T04:50:34.402Z,10.83
2022-08-08T04:53:14.071Z,10.37
2022-08-08T04:55:56.222Z,12.20
2022-08-08T04:58:23.642Z,11.33
2022-08-08T05:00:51.771Z,8.20
2022-08-08T05:04:10.876Z,9.03
2022-08-08T05:06:12.697Z,7.20
2022-08-08T05:08:42.495Z,10.77
2022-08-08T05:11:18.658Z,12.57
2022-08-08T05:13:57.995Z,9.33
2022-08-08T05:16:50.813Z,9.40
2022-08-08T05:20:12.407Z,8.47
2022-08-08T05:22:02.833Z,10.33
2022-08-08T05:24:30.913Z,8.53
2022-08-08T05:26:58.177Z,10.10
2022-08-08T05:29:28.396Z,8.77
2022-08-08T05:32:04.641Z,9.00
2022-08-08T05:34:41.284Z,10.53
2022-08-08T05:37:17.277Z,11.50
2022-08-08T05:39:53.183Z,9.87
2022-08-08T05:42:26.241Z,9.27
2022-08-08T05:44:54.165Z,9.73
2022-08-08T05:47:24.384Z,11.00
2022-08-08T05:49:58.618Z,13.63
2022-08-08T05:52:34.713Z,10.43
2022-08-08T05:55:08.970Z,9.57
2022-08-08T05:58:04.292Z,11.20
2022-08-08T06:00:34.636Z,14.50
2022-08-08T06:03:17.329Z,11.50
2022-08-08T06:06:07.404Z,12.13
2022-08-08T06:08:53.361Z,9.07
2022-08-08T06:11:22.798Z,9.70
2022-08-08T06:13:55.364Z,9.03
2022-08-08T06:16:25.026Z,10.40
2022-08-08T06:18:59.942Z,11.67
2022-08-08T06:21:32.405Z,12.90
2022-08-08T06:24:03.573Z,9.83
2022-08-08T06:26:45.556Z,11.90
2022-08-08T06:29:59.336Z,7.60
2022-08-08T06:32:31.673Z,9.43
2022-08-08T06:36:00.550Z,7.40
2022-08-08T06:38:02.059Z,7.93
2022-08-08T06:40:36.755Z,6.20
2022-08-08T06:43:09.456Z,8.03
2022-08-08T06:45:40.365Z,7.73
2022-08-08T06:48:08.587Z,4.90
2022-08-08T06:50:38.211Z,11.33
2022-08-08T06:53:14.351Z,6.37
2022-08-08T06:56:01.997Z,6.93
2022-08-08T06:58:30.910Z,8.27
2022-08-08T07:01:52.330Z,4.97
2022-08-08T07:04:37.476Z,6.27
2022-08-08T07:06:51.785Z,6.17
2022-08-08T07:09:21.360Z,6.93
2022-08-08T07:11:52.833Z,6.03
2022-08-08T07:14:36.435Z,6.17
2022-08-08T07:17:09.123Z,4.70
2022-08-08T07:20:02.313Z,6.80
2022-08-08T07:22:42.272Z,5.30
2022-08-08T07:25:14.376Z,6.17
2022-08-08T07:28:01.979Z,5.47
2022-08-08T07:30:34.899Z,6.27
2022-08-08T07:33:01.990Z,3.33
2022-08-08T07:35:30.726Z,2.90
2022-08-08T07:38:04.462Z,4.30
2022-08-08T07:40:38.042Z,4.23
2022-08-08T07:43:09.581Z,3.23
2022-08-08T07:46:05.757Z,5.53
2022-08-08T07:48:24.767Z,8.90
2022-08-08T07:51:01.466Z,4.80
2022-08-08T07:54:06.655Z,5.67
2022-08-08T07:56:43.795Z,5.00
2022-08-08T07:59:20.119Z,5.10
2022-08-08T08:02:35.445Z,3.63
2022-08-08T08:04:49.155Z,3.88
2022-08-08T08:07:25.996Z,5.07
2022-08-08T08:10:03.658Z,4.78
2022-08-08T08:12:35.495Z,3.22
2022-08-08T08:15:11.899Z,5.05
2022-08-08T08:17:48.610Z,3.92
2022-08-08T08:20:19.090Z,6.82
2022-08-08T08:22:47.655Z,3.83
2022-08-08T08:25:16.952Z,5.18
2022-08-08T08:28:02.857Z,4.38
2022-08-08T08:30:29.866Z,4.68
2022-08-08T08:32:56.577Z,3.80
2022-08-08T08:35:29.837Z,4.05
2022-08-08T08:38:17.598Z,2.60
2022-08-08T08:40:48.708Z,4.68
2022-08-08T08:43:19.848Z,3.90
2022-08-08T08:45:48.434Z,4.85
2022-08-08T08:48:19.722Z,3.75
2022-08-08T08:50:52.145Z,5.82
2022-08-08T08:53:54.722Z,7.43
2022-08-08T08:56:07.770Z,3.63
2022-08-08T08:58:46.776Z,3.35
2022-08-08T09:01:30.524Z,4.40
2022-08-08T09:04:05.945Z,3.63
2022-08-08T09:06:49.943Z,3.88
2022-08-08T09:09:37.495Z,3.90
2022-08-08T09:12:11.305Z,3.72
2022-08-08T09:14:42.384Z,4.80
2022-08-08T09:17:19.100Z,2.28
2022-08-08T09:22:02.282Z,3.75
2022-08-08T09:22:55.282Z,4.70
2022-08-08T09:25:35.912Z,3.90
2022-08-08T09:28:35.698Z,4.30
2022-08-08T09:31:12.611Z,4.78
2022-08-08T09:34:28.314Z,3.60
2022-08-08T09:36:38.942Z,3.90
2022-08-08T09:39:15.207Z,3.08
2022-08-08T09:42:20.944Z,2.25
2022-08-08T09:44:53.985Z,2.67
2022-08-08T09:48:02.014Z,2.78
2022-08-08T09:50:17.292Z,5.25
2022-08-08T09:52:56.700Z,4.28
2022-08-08T09:56:03.012Z,3.42
2022-08-08T09:58:27.775Z,1.70
2022-08-08T10:01:15.009Z,2.50
2022-08-08T10:03:56.290Z,2.22
2022-08-08T10:06:29.469Z,2.83
2022-08-08T10:08:57.292Z,2.88
2022-08-08T10:12:26.859Z,4.28
2022-08-08T10:14:28.374Z,2.17
2022-08-08T10:16:59.174Z,2.35
2022-08-08T10:19:57.444Z,1.48
2022-08-08T10:22:29.569Z,2.60
2022-08-08T10:25:03.295Z,2.15
2022-08-08T10:27:43.680Z,2.45
2022-08-08T10:30:16.795Z,2.28
2022-08-08T10:33:00.820Z,1.52
2022-08-08T10:36:20.017Z,1.98
2022-08-08T10:38:20.767Z,1.15
2022-08-08T10:40:53.596Z,1.63
2022-08-08T10:43:22.965Z,2.55
2022-08-08T10:45:55.769Z,1.45
2022-08-08T10:48:56.700Z,1.30
2022-08-08T10:51:31.168Z,1.92
2022-08-08T10:54:08.067Z,1.98
2022-08-08T10:56:36.183Z,2.20
2022-08-08T10:59:14.081Z,1.15
2022-08-08T11:01:49.562Z,2.63
2022-08-08T11:04:29.878Z,2.45
2022-08-08T11:07:07.227Z,2.00
2022-08-08T11:09:35.845Z,1.50
2022-08-08T11:12:13.791Z,2.38
2022-08-08T11:14:57.086Z,2.72
2022-08-08T11:18:00.183Z,2.42
2022-08-08T11:20:27.913Z,2.30
2022-08-08T11:22:56.203Z,4.53
2022-08-08T11:25:53.184Z,1.95
2022-08-08T11:28:20.866Z,3.30
2022-08-08T11:30:50.330Z,3.13
2022-08-08T11:33:51.041Z,1.95
2022-08-08T11:36:14.574Z,2.67
2022-08-08T11:38:54.866Z,3.30
2022-08-08T11:41:24.981Z,1.95
2022-08-08T11:43:58.147Z,1.77
2022-08-08T11:46:31.756Z,3.33
2022-08-08T11:49:04.297Z,2.72
2022-08-08T11:51:40.161Z,3.00
2022-08-08T11:54:31.338Z,2.53
2022-08-08T11:57:14.326Z,2.25
2022-08-08T12:00:00.455Z,2.88
2022-08-08T12:02:34.332Z,1.85
2022-08-08T12:05:12.276Z,4.43
2022-08-08T12:07:55.838Z,4.47
2022-08-08T12:10:28.143Z,1.65
2022-08-08T12:13:05.267Z,1.90
2022-08-08T12:15:42.030Z,2.70
2022-08-08T12:18:20.794Z,2.75
2022-08-08T12:20:50.218Z,3.47
2022-08-08T12:23:43.711Z,2.05
2022-08-08T12:26:57.102Z,2.78
2022-08-08T12:29:42.342Z,2.78
2022-08-08T12:32:20.159Z,3.00
2022-08-08T12:35:16.893Z,3.72
2022-08-08T12:38:01.527Z,4.55
2022-08-08T12:40:56.390Z,1.65
2022-08-08T12:43:43.417Z,0.70
2022-08-08T12:46:19.106Z,0.85
2022-08-08T12:51:58.646Z,1.48
2022-08-08T12:54:36.816Z,2.90
2022-08-08T12:57:24.502Z,2.78
2022-08-08T13:00:03.556Z,3.47
2022-08-08T13:02:51.073Z,2.42
2022-08-08T13:05:26.843Z,1.35
2022-08-08T13:08:33.380Z,1.27
2022-08-08T13:11:08.788Z,2.45
2022-08-08T13:13:38.600Z,3.08
2022-08-08T13:16:18.640Z,1.85
2022-08-08T13:18:55.867Z,4.18
2022-08-08T13:21:30.136Z,3.60
2022-08-08T13:24:18.688Z,0.70
2022-08-08T13:27:06.405Z,2.45
2022-08-08T13:29:49.617Z,2.55
2022-08-08T13:32:20.746Z,2.72
2022-08-08T13:34:55.198Z,2.42
2022-08-08T13:37:27.942Z,1.98
2022-08-08T13:40:17.827Z,2.33
2022-08-08T13:42:54.275Z,3.63
2022-08-08T13:45:24.228Z,1.90
2022-08-08T13:48:04.168Z,2.88
2022-08-08T13:50:48.062Z,2.53
2022-08-08T13:53:36.254Z,1.92
2022-08-08T13:56:11.232Z,1.60
2022-08-08T13:58:57.548Z,2.88
2022-08-08T14:01:56.684Z,2.65
2022-08-08T14:04:27.775Z,3.95
2022-08-08T14:07:04.276Z,4.90
2022-08-08T14:10:04.266Z,2.35
2022-08-08T14:12:28.713Z,2.45
2022-08-08T14:14:55.858Z,2.83
2022-08-08T14:17:58.106Z,2.65
2022-08-08T14:20:15.778Z,2.42
2022-08-08T14:23:21.328Z,2.25
2022-08-08T14:26:10.587Z,2.78
2022-08-08T14:28:39.914Z,2.50
2022-08-08T14:31:11.541Z,1.73
2022-08-08T14:33:55.807Z,2.20
2022-08-08T14:36:34.270Z,2.97
2022-08-08T14:39:02.765Z,2.72
2022-08-08T14:41:54.614Z,1.73
2022-08-08T14:44:35.322Z,4.05
2022-08-08T14:47:17.322Z,3.58
2022-08-08T14:50:05.809Z,3.70
2022-08-08T14:52:47.215Z,3.22
2022-08-08T14:55:16.439Z,2.83
2022-08-08T14:58:02.845Z,2.13
2022-08-08T15:00:37.683Z,1.58
2022-08-08T15:03:16.196Z,1.58
2022-08-08T15:05:54.664Z,2.83
2022-08-08T15:08:35.318Z,2.92
2022-08-08T15:11:09.364Z,3.67
2022-08-08T15:14:01.147Z,1.85
2022-08-08T15:16:29.582Z,3.42
2022-08-08T15:19:04.915Z,3.90
2022-08-08T15:21:32.186Z,2.15
2022-08-08T15:24:00.101Z,2.60
2022-08-08T15:26:28.844Z,2.90
2022-08-08T15:28:57.411Z,4.32
2022-08-08T15:32:03.140Z,3.25
2022-08-08T15:34:28.971Z,2.47
2022-08-08T15:36:59.579Z,2.83
2022-08-08T15:39:31.740Z,2.05
2022-08-08T15:42:17.956Z,1.95
2022-08-08T15:44:58.165Z,3.60
2022-08-08T15:47:25.205Z,3.50
2022-08-08T15:49:55.748Z,2.70
2022-08-08T15:52:24.994Z,3.15
2022-08-08T15:54:53.615Z,3.20
2022-08-08T15:57:40.024Z,5.72
2022-08-08T16:00:26.009Z,4.13
2022-08-08T16:02:59.147Z,2.15
2022-08-08T16:05:35.231Z,3.25
2022-08-08T16:08:03.173Z,3.10
2022-08-08T16:13:04.075Z,2.58
2022-08-08T16:13:33.460Z,2.78
2022-08-08T16:16:30.589Z,1.17
2022-08-08T16:19:23.367Z,4.63
2022-08-08T16:21:57.080Z,4.65
2022-08-08T16:24:39.745Z,2.20
2022-08-08T16:27:19.277Z,3.53
2022-08-08T16:30:13.020Z,3.33
2022-08-08T16:32:24.185Z,2.90
2022-08-08T16:34:54.566Z,3.17
2022-08-08T16:37:21.239Z,4.25
2022-08-08T16:40:00.649Z,3.08
2022-08-08T16:42:29.969Z,3.53
2022-08-08T16:44:58.941Z,3.10
2022-08-08T16:47:40.247Z,3.65
2022-08-08T16:50:15.489Z,4.25
2022-08-08T16:54:59.754Z,2.47
2022-08-08T16:55:54.980Z,2.50
2022-08-08T16:58:25.804Z,4.22
2022-08-08T17:00:54.692Z,7.32
2022-08-08T17:03:25.365Z,2.55
2022-08-08T17:06:37.050Z,1.40
2022-08-08T17:08:56.908Z,6.93
2022-08-08T17:11:28.378Z,4.10
2022-08-08T17:14:17.901Z,3.10
2022-08-08T17:16:51.673Z,3.30
2022-08-08T17:19:23.823Z,1.92
2022-08-08T17:21:50.565Z,3.25
2022-08-08T17:24:26.941Z,2.35
2022-08-08T17:26:55.029Z,3.33
2022-08-08T17:29:25.278Z,2.50
2022-08-08T17:31:52.836Z,3.92
2022-08-08T17:34:36.122Z,2.38
2022-08-08T17:37:06.759Z,2.60
2022-08-08T17:40:04.944Z,2.05
2022-08-08T17:42:24.099Z,5.10
2022-08-08T17:44:52.884Z,3.13
2022-08-08T17:47:24.372Z,3.83
2022-08-08T17:50:02.631Z,1.23
2022-08-08T17:52:31.770Z,2.70
2022-08-08T17:55:01.343Z,1.92
2022-08-08T17:57:35.585Z,3.90
2022-08-08T18:00:04.918Z,2.85
2022-08-08T18:02:40.304Z,3.75
2022-08-08T18:05:14.724Z,2.72
2022-08-08T18:08:15.505Z,2.17
2022-08-08T18:10:39.252Z,1.88
2022-08-08T18:13:07.411Z,2.53
2022-08-08T18:15:35.614Z,3.00
2022-08-08T18:18:28.412Z,3.78
2022-08-08T18:20:59.185Z,4.32
2022-08-08T18:23:27.227Z,4.53
2022-08-08T18:25:55.658Z,3.93
2022-08-08T18:28:28.360Z,1.30
2022-08-08T18:31:02.612Z,2.07
2022-08-08T18:34:10.145Z,4.10
2022-08-08T18:36:23.413Z,2.47
2022-08-08T18:38:51.907Z,2.23
2022-08-08T18:41:19.278Z,1.83
2022-08-08T18:44:07.033Z,4.73
2022-08-08T18:46:54.478Z,1.83
2022-08-08T18:49:32.682Z,1.67
2022-08-08T18:52:22.374Z,2.30
2022-08-08T18:54:59.655Z,3.10
2022-08-08T18:57:40.977Z,3.17
2022-08-08T19:00:15.555Z,2.13
2022-08-08T19:02:48.313Z,5.80
2022-08-08T19:05:31.886Z,2.47
2022-08-08T19:08:01.292Z,2.60
2022-08-08T19:10:29.741Z,2.23
2022-08-08T19:12:56.870Z,3.93
2022-08-08T19:15:26.157Z,1.87
2022-08-08T19:18:32.133Z,1.63
2022-08-08T19:20:47.815Z,2.50
2022-08-08T19:23:14.542Z,2.00
2022-08-08T19:26:26.976Z,4.23
2022-08-08T19:28:30.650Z,2.67
2022-08-08T19:31:03.448Z,1.63
2022-08-08T19:33:39.699Z,3.77
2022-08-08T19:36:25.173Z,1.97
2022-08-08T19:38:55.966Z,2.20
2022-08-08T19:41:30.920Z,2.87
2022-08-08T19:44:12.876Z,1.80
2022-08-08T19:46:49.484Z,5.57
2022-08-08T19:49:16.628Z,5.10
2022-08-08T19:51:45.035Z,1.93
2022-08-08T19:54:12.535Z,4.33
2022-08-08T19:56:41.492Z,2.90
2022-08-08T19:59:15.280Z,2.50
2022-08-08T20:01:59.740Z,2.23
2022-08-08T20:04:30.603Z,2.40
2022-08-08T20:07:03.441Z,3.47
2022-08-08T20:09:32.515Z,3.63
2022-08-08T20:12:09.292Z,1.93
2022-08-08T20:14:41.930Z,2.13
2022-08-08T20:17:11.665Z,3.07
2022-08-08T20:19:42.156Z,3.70
2022-08-08T20:22:20.961Z,2.77
2022-08-08T20:24:57.976Z,3.57
2022-08-08T20:27:43.675Z,3.47
2022-08-08T20:30:53.164Z,2.37
2022-08-08T20:33:01.617Z,4.70
2022-08-08T20:35:32.655Z,5.40
2022-08-08T20:38:16.595Z,3.90
2022-08-08T20:40:47.435Z,3.67
2022-08-08T20:43:22.931Z,3.10
2022-08-08T20:46:04.854Z,4.03
2022-08-08T20:48:32.139Z,5.13
2022-08-08T20:50:59.150Z,4.47
2022-08-08T20:54:00.139Z,3.13
2022-08-08T20:56:14.342Z,3.93
2022-08-08T20:58:47.981Z,5.90
2022-08-08T21:01:19.745Z,5.57
2022-08-08T21:03:55.496Z,5.87
2022-08-08T21:06:52.698Z,3.47
2022-08-08T21:09:16.018Z,4.13
2022-08-08T21:11:50.497Z,4.10
2022-08-08T21:14:30.364Z,4.37
2022-08-08T21:17:06.401Z,5.53
2022-08-08T21:19:45.571Z,5.97
2022-08-08T21:22:14.451Z,2.97
2022-08-08T21:24:53.353Z,7.20
2022-08-08T21:28:05.886Z,9.10
2022-08-08T21:30:19.239Z,5.63
2022-08-08T21:32:52.133Z,3.97
2022-08-08T21:36:17.681Z,5.87
2022-08-08T21:38:12.037Z,4.63
2022-08-08T21:40:55.947Z,4.43
2022-08-08T21:43:33.159Z,3.37
2022-08-08T21:48:07.862Z,5.67
2022-08-08T21:48:49.493Z,3.73
2022-08-08T21:54:18.340Z,3.50
2022-08-08T21:54:35.309Z,2.77
2022-08-08T21:57:00.023Z,4.07
2022-08-08T22:00:01.904Z,3.60
2022-08-08T22:02:16.113Z,5.53
2022-08-08T22:04:46.481Z,3.67
2022-08-08T22:07:13.289Z,4.97
2022-08-08T22:09:43.590Z,5.73
2022-08-08T22:12:15.054Z,4.27
2022-08-08T22:14:49.897Z,5.00
2022-08-08T22:17:19.306Z,4.80
2022-08-08T22:20:13.073Z,6.93
2022-08-08T22:22:38.083Z,6.43
2022-08-08T22:25:19.833Z,7.13
2022-08-08T22:28:03.561Z,3.97
2022-08-08T22:30:32.498Z,4.43
2022-08-08T22:33:01.129Z,4.50
2022-08-08T22:36:04.034Z,6.93
2022-08-08T22:38:17.511Z,4.73
2022-08-08T22:40:45.168Z,4.70
2022-08-08T22:43:15.599Z,5.73
2022-08-08T22:45:43.965Z,5.17
2022-08-08T22:48:13.992Z,6.70
2022-08-08T22:50:41.193Z,3.50
2022-08-08T22:54:27.827Z,4.73
2022-08-08T22:56:01.490Z,4.60
2022-08-08T22:58:34.188Z,6.63
2022-08-08T23:02:01.089Z,7.17
2022-08-08T23:03:57.417Z,5.97
2022-08-08T23:06:25.552Z,4.27
2022-08-08T23:08:55.321Z,6.30
2022-08-08T23:11:30.969Z,5.50
2022-08-08T23:14:16.311Z,6.70
2022-08-08T23:16:44.234Z,6.07
2022-08-08T23:19:15.579Z,4.77
2022-08-08T23:21:46.980Z,6.97
2022-08-08T23:24:22.989Z,5.07
2022-08-08T23:26:53.317Z,4.80
2022-08-08T23:29:25.227Z,8.80
2022-08-08T23:31:52.858Z,6.03
2022-08-08T23:34:20.512Z,6.57
2022-08-08T23:36:48.302Z,6.40
2022-08-08T23:39:15.810Z,5.23
2022-08-08T23:41:47.040Z,5.90
2022-08-08T23:44:20.122Z,6.63
2022-08-08T23:49:00.209Z,10.33
2022-08-08T23:49:38.809Z,6.50
2022-08-08T23:52:08.830Z,6.30
2022-08-08T23:54:43.429Z,5.13
2022-08-08T23:57:39.041Z,7.30
